Time;durP1;ratioP1;P1;durP2;ratioP2;P2;SDS_P1;SDS_P2;PMS_P1;PMS_P2;Temp;Humidity;BMP_temperature;BMP_pressure;BME280_temperature;BME280_humidity;BME280_pressure;Samples;Min_cycle;Max_cycle;Signal;HPM_P1;HPM_P2
2021/01/23 00:00:57;;;;;;;2.70;0.80;;;1.90;99.90;;;;;;5030749;28;20293;-64
2021/01/23 00:03:23;;;;;;;0.70;0.70;;;1.90;99.90;;;;;;5032330;28;20453;-62
2021/01/23 00:05:48;;;;;;;0.70;0.70;;;1.90;99.90;;;;;;5026909;28;20190;-63
2021/01/23 00:08:14;;;;;;;0.70;0.70;;;1.90;99.90;;;;;;5030938;28;20444;-63
2021/01/23 00:10:40;;;;;;;0.80;0.80;;;1.80;99.90;;;;;;5048257;28;20236;-63
2021/01/23 00:13:05;;;;;;;0.80;0.80;;;1.80;99.90;;;;;;5042926;28;20217;-63
2021/01/23 00:15:31;;;;;;;0.80;0.80;;;1.70;99.90;;;;;;5033641;28;20214;-64
2021/01/23 00:17:56;;;;;;;1.47;0.97;;;1.70;99.90;;;;;;5031012;28;20193;-62
2021/01/23 00:20:22;;;;;;;0.60;0.60;;;1.60;99.90;;;;;;5032441;28;20199;-62
2021/01/23 00:22:50;;;;;;;0.70;0.70;;;1.60;99.90;;;;;;5040908;28;20173;-63
2021/01/23 00:25:16;;;;;;;0.70;0.70;;;1.60;99.90;;;;;;5031310;28;20182;-63
2021/01/23 00:27:41;;;;;;;0.80;0.80;;;1.50;99.90;;;;;;5042967;28;20444;-65
2021/01/23 00:30:08;;;;;;;0.70;0.70;;;1.40;99.90;;;;;;5034805;28;20208;-62
2021/01/23 00:32:36;;;;;;;0.70;0.70;;;1.40;99.90;;;;;;5033454;28;20429;-62
2021/01/23 00:35:03;;;;;;;0.70;0.70;;;1.30;99.90;;;;;;5032875;28;20435;-62
2021/01/23 00:37:29;;;;;;;0.60;0.60;;;1.20;99.90;;;;;;5034578;28;20437;-60
2021/01/23 00:39:56;;;;;;;0.70;0.70;;;1.20;99.90;;;;;;5034282;28;20472;-62
2021/01/23 00:42:22;;;;;;;0.97;0.97;;;1.20;99.90;;;;;;5036871;28;20223;-63
2021/01/23 00:44:48;;;;;;;0.70;0.70;;;1.10;99.90;;;;;;5037694;28;20441;-63
2021/01/23 00:47:14;;;;;;;0.70;0.70;;;1.10;99.90;;;;;;5036495;28;20436;-63
2021/01/23 00:49:40;;;;;;;0.77;0.77;;;1.00;99.90;;;;;;5000609;28;20230;-60
2021/01/23 00:52:06;;;;;;;0.70;0.70;;;1.00;99.90;;;;;;5006270;28;20440;-60
2021/01/23 00:54:32;;;;;;;0.70;0.70;;;0.90;99.90;;;;;;5004273;28;20676;-61
2021/01/23 00:56:58;;;;;;;0.80;0.80;;;0.90;99.90;;;;;;5013651;28;20463;-60
2021/01/23 00:59:23;;;;;;;1.23;0.87;;;0.90;99.90;;;;;;5012693;28;20210;-59
2021/01/23 01:01:49;;;;;;;0.90;0.70;;;0.90;99.90;;;;;;5010616;28;20244;-60
2021/01/23 01:04:14;;;;;;;0.70;0.70;;;0.80;99.90;;;;;;5014135;28;20185;-60
2021/01/23 01:06:40;;;;;;;0.70;0.70;;;0.80;99.90;;;;;;5008762;28;20190;-60
2021/01/23 01:09:06;;;;;;;0.70;0.70;;;0.80;99.90;;;;;;5020698;28;20181;-61
2021/01/23 01:11:32;;;;;;;0.90;0.90;;;0.80;99.90;;;;;;5034155;28;20181;-58
2021/01/23 01:13:58;;;;;;;0.70;0.70;;;0.90;99.90;;;;;;5022989;28;20290;-60
2021/01/23 01:16:23;;;;;;;0.70;0.70;;;0.90;99.90;;;;;;4998932;28;20886;-60
2021/01/23 01:18:49;;;;;;;0.70;0.70;;;0.90;99.90;;;;;;5011485;28;20779;-60
2021/01/23 01:21:15;;;;;;;0.70;0.70;;;0.90;99.90;;;;;;5010571;28;20214;-61
2021/01/23 01:23:42;;;;;;;0.70;0.70;;;0.90;99.90;;;;;;5015668;28;20581;-61
2021/01/23 01:26:08;;;;;;;0.77;0.77;;;0.90;99.90;;;;;;5018074;28;20177;-60
2021/01/23 01:28:34;;;;;;;0.73;0.70;;;0.90;99.90;;;;;;5013739;28;20990;-60
2021/01/23 01:30:59;;;;;;;0.67;0.67;;;0.90;99.90;;;;;;5027070;28;20587;-60
2021/01/23 01:33:25;;;;;;;0.80;0.80;;;0.90;99.90;;;;;;5009792;28;20198;-61
2021/01/23 01:35:50;;;;;;;0.70;0.70;;;0.90;99.90;;;;;;5008734;28;20249;-61
2021/01/23 01:38:16;;;;;;;0.80;0.80;;;0.90;99.90;;;;;;5030803;28;20576;-60
2021/01/23 01:40:42;;;;;;;0.80;0.80;;;0.90;99.90;;;;;;5013154;28;20201;-60
2021/01/23 01:43:08;;;;;;;0.80;0.80;;;0.90;99.90;;;;;;5002513;28;20681;-60
2021/01/23 01:45:33;;;;;;;0.70;0.70;;;0.90;99.90;;;;;;5011228;28;20549;-60
2021/01/23 01:48:00;;;;;;;0.80;0.80;;;0.90;99.90;;;;;;5023792;28;20195;-61
2021/01/23 01:50:26;;;;;;;0.80;0.80;;;0.90;99.90;;;;;;5013653;28;20225;-60
2021/01/23 01:52:52;;;;;;;0.87;0.87;;;0.90;99.90;;;;;;5012406;28;20428;-58
2021/01/23 01:55:19;;;;;;;1.10;1.00;;;0.90;99.90;;;;;;5001142;28;20441;-60
2021/01/23 01:57:45;;;;;;;0.80;0.80;;;0.90;99.90;;;;;;5011550;28;20481;-60
2021/01/23 02:00:11;;;;;;;0.70;0.70;;;0.90;99.90;;;;;;5013426;28;20452;-60
2021/01/23 02:03:26;;;;;;;0.77;0.77;;;0.90;99.90;;;;;;5016493;28;20526;-60
2021/01/23 02:06:09;;;;;;;0.90;0.90;;;0.90;99.90;;;;;;4977555;28;20468;-60
2021/01/23 02:08:54;;;;;;;0.80;0.80;;;0.80;99.90;;;;;;5003109;28;20477;-60
2021/01/23 02:11:46;;;;;;;0.70;0.70;;;0.80;99.90;;;;;;5007826;28;20484;-60
2021/01/23 02:14:17;;;;;;;1.10;0.90;;;0.80;99.90;;;;;;4968596;28;20527;-61
2021/01/23 02:16:49;;;;;;;0.80;0.80;;;0.90;99.90;;;;;;5012301;28;20483;-60
2021/01/23 02:19:27;;;;;;;0.70;0.70;;;0.90;99.90;;;;;;5032890;28;20439;-60
2021/01/23 02:22:31;;;;;;;0.77;0.77;;;0.90;99.90;;;;;;5015224;28;20937;-60
2021/01/23 02:24:57;;;;;;;0.70;0.70;;;0.90;99.90;;;;;;4985462;28;20504;-60
2021/01/23 02:27:53;;;;;;;0.80;0.80;;;0.90;99.90;;;;;;5021612;28;20804;-59
2021/01/23 02:30:30;;;;;;;0.80;0.80;;;0.90;99.90;;;;;;5015245;28;20907;-61
2021/01/23 02:33:00;;;;;;;0.80;0.80;;;0.90;99.90;;;;;;5003537;28;20432;-61
2021/01/23 02:35:26;;;;;;;0.77;0.77;;;0.90;99.90;;;;;;5002850;28;20461;-60
2021/01/23 02:37:53;;;;;;;0.60;0.60;;;0.90;99.90;;;;;;5019320;28;20466;-60
2021/01/23 02:40:21;;;;;;;0.70;0.70;;;0.90;99.90;;;;;;5004642;28;20265;-60
2021/01/23 02:42:49;;;;;;;0.70;0.70;;;0.80;99.90;;;;;;4998554;28;20512;-61
2021/01/23 02:45:15;;;;;;;0.77;0.77;;;0.90;99.90;;;;;;4999967;28;20465;-61
2021/01/23 02:47:41;;;;;;;0.73;0.73;;;0.90;99.90;;;;;;5009849;28;20433;-60
2021/01/23 02:50:08;;;;;;;0.70;0.70;;;0.90;99.90;;;;;;5003415;28;20468;-61
2021/01/23 02:52:42;;;;;;;0.80;0.80;;;0.90;99.90;;;;;;5010094;28;20185;-63
2021/01/23 02:55:12;;;;;;;0.70;0.70;;;0.90;99.90;;;;;;5010687;28;20977;-61
2021/01/23 02:57:39;;;;;;;2.40;0.90;;;0.90;99.90;;;;;;5019214;28;20438;-60
2021/01/23 03:00:08;;;;;;;0.80;0.80;;;0.90;99.90;;;;;;5016444;28;20820;-61
2021/01/23 03:02:41;;;;;;;0.87;0.87;;;0.90;99.90;;;;;;5019439;28;21033;-60
2021/01/23 03:05:11;;;;;;;0.80;0.80;;;0.80;99.90;;;;;;5004497;28;21046;-60
2021/01/23 03:07:38;;;;;;;0.80;0.80;;;0.80;99.90;;;;;;5007333;28;20483;-60
2021/01/23 03:10:05;;;;;;;0.80;0.80;;;0.90;99.90;;;;;;5031043;28;20454;-61
2021/01/23 03:12:31;;;;;;;0.80;0.80;;;0.90;99.90;;;;;;5000806;28;20811;-60
2021/01/23 03:14:57;;;;;;;0.80;0.80;;;0.90;99.90;;;;;;5004133;28;20445;-61
2021/01/23 03:17:22;;;;;;;0.77;0.77;;;1.00;99.90;;;;;;5015223;28;20362;-60
2021/01/23 03:19:49;;;;;;;0.90;0.90;;;1.00;99.90;;;;;;5007850;28;20218;-60
2021/01/23 03:22:14;;;;;;;0.80;0.80;;;1.00;99.90;;;;;;5015661;28;20451;-61
2021/01/23 03:24:40;;;;;;;1.03;0.87;;;1.10;99.90;;;;;;4995635;28;20584;-61
2021/01/23 03:27:05;;;;;;;0.60;0.60;;;1.10;99.90;;;;;;4987095;28;20559;-61
2021/01/23 03:29:31;;;;;;;1.63;0.90;;;1.10;99.90;;;;;;5012408;28;20215;-60
2021/01/23 03:32:00;;;;;;;0.90;0.87;;;1.10;99.90;;;;;;5016908;28;20185;-61
2021/01/23 03:34:26;;;;;;;1.00;0.90;;;1.10;99.90;;;;;;5009760;28;20453;-60
2021/01/23 03:36:52;;;;;;;1.53;1.43;;;1.10;99.90;;;;;;5008856;28;20525;-60
2021/01/23 03:39:17;;;;;;;0.90;0.90;;;1.10;99.90;;;;;;5009731;28;20429;-61
2021/01/23 03:41:43;;;;;;;1.53;1.07;;;1.10;99.90;;;;;;5009440;28;20564;-62
2021/01/23 03:44:09;;;;;;;0.70;0.70;;;1.10;99.90;;;;;;5009059;28;20657;-60
2021/01/23 03:46:34;;;;;;;0.90;0.90;;;1.10;99.90;;;;;;5003817;28;20190;-61
2021/01/23 03:49:00;;;;;;;0.97;0.90;;;1.10;99.90;;;;;;5018680;28;20656;-60
2021/01/23 03:51:26;;;;;;;0.80;0.80;;;1.10;99.90;;;;;;5005434;28;20214;-61
2021/01/23 03:53:52;;;;;;;0.80;0.80;;;1.10;99.90;;;;;;5008556;28;20241;-60
2021/01/23 03:56:17;;;;;;;0.80;0.80;;;1.10;99.90;;;;;;4989449;28;20856;-62
2021/01/23 03:58:43;;;;;;;1.00;1.00;;;1.10;99.90;;;;;;5007593;28;20639;-60
2021/01/23 04:01:08;;;;;;;0.93;0.93;;;1.20;99.90;;;;;;5008718;28;20628;-62
2021/01/23 04:03:34;;;;;;;0.93;0.90;;;1.10;99.90;;;;;;4995916;28;20207;-60
2021/01/23 04:06:00;;;;;;;0.90;0.90;;;1.20;99.90;;;;;;5008042;28;20191;-62
2021/01/23 04:08:25;;;;;;;1.50;0.93;;;1.10;99.90;;;;;;5008528;28;20187;-61
2021/01/23 04:10:51;;;;;;;1.00;0.80;;;1.20;99.90;;;;;;4998954;28;20204;-60
2021/01/23 04:13:17;;;;;;;0.80;0.80;;;1.20;99.90;;;;;;5006213;28;20194;-60
2021/01/23 04:15:42;;;;;;;0.90;0.90;;;1.20;99.90;;;;;;5010107;28;20282;-60
2021/01/23 04:18:08;;;;;;;0.77;0.77;;;1.20;99.90;;;;;;5023256;28;20177;-61
2021/01/23 04:20:34;;;;;;;0.80;0.80;;;1.20;99.90;;;;;;5006388;28;20297;-61
2021/01/23 04:23:00;;;;;;;0.80;0.80;;;1.10;99.90;;;;;;5005336;28;20173;-61
2021/01/23 04:25:25;;;;;;;0.80;0.80;;;1.10;99.90;;;;;;5010566;28;20183;-60
2021/01/23 04:27:51;;;;;;;0.90;0.90;;;1.10;99.90;;;;;;5020212;28;20273;-61
2021/01/23 04:30:17;;;;;;;0.97;0.83;;;1.10;99.90;;;;;;5018572;28;20675;-60
2021/01/23 04:32:43;;;;;;;0.90;0.90;;;1.10;99.90;;;;;;5010446;28;20178;-61
2021/01/23 04:35:10;;;;;;;0.97;0.97;;;1.10;99.90;;;;;;4992318;28;20444;-61
2021/01/23 04:37:40;;;;;;;1.00;1.00;;;1.20;99.90;;;;;;4996427;28;20183;-60
2021/01/23 04:40:08;;;;;;;1.00;1.00;;;1.10;99.90;;;;;;5003041;28;20585;-61
2021/01/23 04:42:34;;;;;;;0.90;0.90;;;1.10;99.90;;;;;;5020420;28;20428;-61
2021/01/23 04:45:00;;;;;;;0.83;0.83;;;1.10;99.90;;;;;;5014336;28;20487;-61
2021/01/23 04:47:26;;;;;;;2.50;1.03;;;1.10;99.90;;;;;;5005225;28;20436;-61
2021/01/23 04:49:51;;;;;;;0.80;0.80;;;1.10;99.90;;;;;;5004039;28;20801;-60
2021/01/23 04:52:17;;;;;;;0.90;0.90;;;1.10;99.90;;;;;;5018141;28;20721;-61
2021/01/23 04:54:44;;;;;;;0.83;0.83;;;1.00;99.90;;;;;;5015714;28;20192;-60
2021/01/23 04:57:09;;;;;;;0.90;0.90;;;1.10;99.90;;;;;;5002334;28;20464;-61
2021/01/23 04:59:35;;;;;;;0.90;0.90;;;1.00;99.90;;;;;;5003727;28;22382;-60
2021/01/23 05:02:17;;;;;;;1.10;1.00;;;1.00;99.90;;;;;;5001312;28;20628;-62
2021/01/23 05:04:48;;;;;;;1.20;1.10;;;1.00;99.90;;;;;;4997623;28;20801;-60
2021/01/23 05:07:43;;;;;;;0.90;0.90;;;1.00;99.90;;;;;;5007665;28;20435;-61
2021/01/23 05:10:20;;;;;;;0.90;0.90;;;1.00;99.90;;;;;;4986368;28;21139;-61
2021/01/23 05:12:54;;;;;;;1.10;1.00;;;1.00;99.90;;;;;;5030510;28;20502;-60
2021/01/23 05:15:23;;;;;;;1.10;1.10;;;1.00;99.90;;;;;;5012488;28;20433;-61
2021/01/23 05:18:00;;;;;;;1.50;1.20;;;1.00;99.90;;;;;;5022981;28;20505;-62
2021/01/23 05:20:37;;;;;;;1.00;1.00;;;1.00;99.90;;;;;;5012153;28;20456;-61
2021/01/23 05:23:10;;;;;;;0.90;0.90;;;1.00;99.90;;;;;;5019661;28;20953;-61
2021/01/23 05:25:39;;;;;;;1.20;1.10;;;1.00;99.90;;;;;;5003655;28;20893;-61
2021/01/23 05:28:06;;;;;;;1.10;1.10;;;1.00;99.90;;;;;;5002017;28;21042;-61
2021/01/23 05:30:39;;;;;;;1.73;1.17;;;1.00;99.90;;;;;;5019360;28;20448;-61
2021/01/23 05:33:13;;;;;;;1.33;1.23;;;1.00;99.90;;;;;;5026013;28;20486;-61
2021/01/23 05:35:39;;;;;;;1.50;1.20;;;1.00;99.90;;;;;;5012313;28;21532;-58
2021/01/23 05:38:44;;;;;;;1.03;1.00;;;1.00;99.90;;;;;;5006404;28;20467;-59
2021/01/23 05:41:11;;;;;;;1.27;1.27;;;1.00;99.90;;;;;;4937440;29;20949;-61
2021/01/23 05:43:45;;;;;;;1.23;1.17;;;1.00;99.90;;;;;;5008171;28;20832;-60
2021/01/23 05:46:18;;;;;;;1.33;1.30;;;1.00;99.90;;;;;;5006756;28;20959;-59
2021/01/23 05:48:48;;;;;;;1.20;1.10;;;0.90;99.90;;;;;;5012483;28;20421;-59
2021/01/23 05:51:16;;;;;;;1.60;1.50;;;0.90;99.90;;;;;;5012691;28;20465;-60
2021/01/23 05:53:43;;;;;;;1.67;1.57;;;0.90;99.90;;;;;;5008847;28;20431;-60
2021/01/23 05:56:09;;;;;;;1.87;1.50;;;0.90;99.90;;;;;;5003426;28;20555;-59
2021/01/23 05:58:36;;;;;;;2.10;1.80;;;0.90;99.90;;;;;;5015443;28;20580;-62
2021/01/23 06:01:12;;;;;;;1.70;1.60;;;0.90;99.90;;;;;;5008530;28;20617;-60
2021/01/23 06:03:43;;;;;;;1.70;1.60;;;0.90;99.90;;;;;;4988731;28;20514;-58
2021/01/23 06:06:11;;;;;;;1.50;1.40;;;0.90;99.90;;;;;;5006506;28;20433;-59
2021/01/23 06:08:49;;;;;;;4.83;2.07;;;0.90;99.90;;;;;;5005543;28;20429;-60
2021/01/23 06:11:18;;;;;;;2.20;2.00;;;0.90;99.90;;;;;;5005797;28;20496;-57
2021/01/23 06:13:51;;;;;;;1.70;1.60;;;0.90;99.90;;;;;;5009983;28;20492;-58
2021/01/23 06:16:31;;;;;;;1.50;1.40;;;0.90;99.90;;;;;;5008542;28;20462;-60
2021/01/23 06:19:20;;;;;;;1.80;1.70;;;0.90;99.90;;;;;;5006101;28;20508;-59
2021/01/23 06:21:46;;;;;;;2.00;1.90;;;0.90;99.90;;;;;;5013701;28;20482;-59
2021/01/23 06:24:12;;;;;;;2.77;1.80;;;0.90;99.90;;;;;;5011419;28;20851;-59
2021/01/23 06:26:53;;;;;;;3.70;2.60;;;0.90;99.90;;;;;;5009763;28;20181;-59
2021/01/23 06:29:39;;;;;;;2.17;2.00;;;0.90;99.90;;;;;;5004769;28;20440;-60
2021/01/23 06:32:13;;;;;;;4.10;2.07;;;0.90;99.90;;;;;;5004912;28;20428;-60
2021/01/23 06:34:54;;;;;;;2.60;2.20;;;0.90;99.90;;;;;;5004422;28;20445;-59
2021/01/23 06:37:33;;;;;;;2.20;2.00;;;0.90;99.90;;;;;;5001813;28;20469;-60
2021/01/23 06:40:12;;;;;;;3.00;2.03;;;0.90;99.90;;;;;;5010091;28;20452;-60
2021/01/23 06:42:49;;;;;;;2.40;2.20;;;1.00;99.90;;;;;;5011370;28;20423;-60
2021/01/23 06:45:26;;;;;;;4.20;2.13;;;1.00;99.90;;;;;;5012871;28;20800;-60
2021/01/23 06:47:56;;;;;;;2.70;2.50;;;1.00;99.90;;;;;;5011241;28;20868;-58
2021/01/23 06:50:42;;;;;;;5.00;2.70;;;1.00;99.90;;;;;;5006756;28;20464;-60
2021/01/23 06:53:28;;;;;;;3.27;2.70;;;1.00;99.90;;;;;;5006874;28;20445;-59
2021/01/23 06:55:55;;;;;;;2.67;2.47;;;1.00;99.90;;;;;;5004563;28;20531;-60
2021/01/23 06:58:22;;;;;;;6.20;2.57;;;1.00;99.90;;;;;;5018893;28;20850;-60
2021/01/23 07:00:52;;;;;;;3.50;3.00;;;1.00;99.90;;;;;;4998196;28;21025;-60
2021/01/23 07:03:18;;;;;;;4.17;3.30;;;1.00;99.90;;;;;;5004860;28;20448;-59
2021/01/23 07:05:45;;;;;;;5.47;3.67;;;1.00;99.90;;;;;;5002708;28;20531;-59
2021/01/23 07:08:36;;;;;;;4.63;3.07;;;1.00;99.90;;;;;;5006472;28;20918;-60
2021/01/23 07:11:10;;;;;;;3.13;2.83;;;1.00;99.90;;;;;;5000839;28;20927;-61
2021/01/23 07:13:38;;;;;;;3.30;3.00;;;1.00;99.90;;;;;;5009963;28;20437;-60
2021/01/23 07:16:05;;;;;;;5.20;2.87;;;1.00;99.90;;;;;;5006716;28;20452;-60
2021/01/23 07:18:30;;;;;;;7.73;3.43;;;1.00;99.90;;;;;;5004126;28;20814;-59
2021/01/23 07:20:56;;;;;;;5.03;3.67;;;1.00;99.90;;;;;;5004026;28;20965;-59
2021/01/23 07:23:22;;;;;;;3.37;3.07;;;1.00;99.90;;;;;;5002866;28;20171;-62
2021/01/23 07:25:49;;;;;;;4.53;3.53;;;1.10;99.90;;;;;;4999889;28;20437;-61
2021/01/23 07:28:19;;;;;;;4.40;3.10;;;1.10;99.90;;;;;;4996379;28;20464;-62
2021/01/23 07:30:46;;;;;;;5.70;3.97;;;1.10;99.90;;;;;;4999010;28;20565;-63
2021/01/23 07:33:27;;;;;;;5.70;4.20;;;1.10;99.90;;;;;;5001073;28;20436;-62
2021/01/23 07:35:52;;;;;;;6.83;4.53;;;1.10;99.90;;;;;;4999290;28;20489;-63
2021/01/23 07:38:20;;;;;;;5.50;4.00;;;1.10;99.90;;;;;;5005953;28;20479;-62
2021/01/23 07:40:46;;;;;;;5.13;3.97;;;1.20;99.90;;;;;;5006760;28;20194;-61
2021/01/23 07:43:12;;;;;;;6.67;4.53;;;1.20;99.90;;;;;;5006224;28;20504;-61
2021/01/23 07:45:38;;;;;;;5.57;4.33;;;1.20;99.90;;;;;;4996128;28;20443;-62
2021/01/23 07:48:05;;;;;;;5.23;4.10;;;1.20;99.90;;;;;;4998000;28;20293;-62
2021/01/23 07:50:39;;;;;;;9.20;3.90;;;1.20;99.90;;;;;;5001229;28;20210;-60
2021/01/23 07:53:14;;;;;;;6.20;4.33;;;1.30;99.90;;;;;;5006333;28;20658;-62
2021/01/23 07:55:40;;;;;;;8.13;4.70;;;1.30;99.90;;;;;;5006076;28;20555;-60
2021/01/23 07:58:09;;;;;;;6.30;4.10;;;1.30;99.90;;;;;;5004354;28;20446;-60
2021/01/23 08:00:35;;;;;;;9.13;5.10;;;1.40;99.90;;;;;;4991998;28;20561;-61
2021/01/23 08:03:01;;;;;;;9.00;6.40;;;1.40;99.90;;;;;;4992165;28;20432;-60
2021/01/23 08:05:45;;;;;;;7.20;5.27;;;1.40;99.90;;;;;;4990776;28;20448;-61
2021/01/23 08:08:31;;;;;;;7.00;4.77;;;1.50;99.90;;;;;;4999765;28;20280;-61
2021/01/23 08:10:58;;;;;;;4.90;3.90;;;1.50;99.90;;;;;;4995383;28;20823;-62
2021/01/23 08:13:26;;;;;;;7.13;4.43;;;1.50;99.90;;;;;;5003962;28;20999;-60
2021/01/23 08:15:51;;;;;;;7.60;4.70;;;1.60;99.90;;;;;;4998641;28;20458;-59
2021/01/23 08:18:19;;;;;;;8.20;5.43;;;1.60;99.90;;;;;;4992881;28;20499;-60
2021/01/23 08:20:45;;;;;;;9.40;5.43;;;1.60;99.90;;;;;;5000223;28;20503;-60
2021/01/23 08:23:18;;;;;;;8.07;4.53;;;1.70;99.90;;;;;;5000288;28;20427;-61
2021/01/23 08:25:48;;;;;;;8.90;5.50;;;1.70;99.90;;;;;;5000540;28;20418;-60
2021/01/23 08:28:28;;;;;;;9.63;4.90;;;1.80;99.90;;;;;;4999617;28;20435;-61
2021/01/23 08:30:54;;;;;;;8.10;5.10;;;1.80;99.90;;;;;;4997632;28;20465;-60
2021/01/23 08:33:19;;;;;;;6.90;5.03;;;1.90;99.90;;;;;;4996131;28;20431;-60
2021/01/23 08:35:45;;;;;;;6.20;4.70;;;1.90;99.90;;;;;;4997679;28;20210;-60
2021/01/23 08:38:11;;;;;;;6.40;4.93;;;1.90;99.90;;;;;;5001893;28;20187;-62
2021/01/23 08:40:40;;;;;;;8.00;5.10;;;2.00;99.90;;;;;;5002320;28;20708;-63
2021/01/23 08:43:06;;;;;;;5.63;4.73;;;2.00;99.90;;;;;;4995515;28;20444;-61
2021/01/23 08:45:32;;;;;;;7.17;4.37;;;2.00;99.90;;;;;;4994507;28;20433;-60
2021/01/23 08:48:00;;;;;;;5.27;3.73;;;2.00;99.90;;;;;;4992123;28;20190;-61
2021/01/23 08:50:26;;;;;;;7.03;4.30;;;2.00;99.90;;;;;;4991840;28;20499;-60
2021/01/23 08:52:51;;;;;;;10.53;4.47;;;2.10;99.90;;;;;;4984896;28;20478;-61
2021/01/23 08:55:17;;;;;;;6.60;4.57;;;2.10;99.90;;;;;;5006199;28;20179;-61
2021/01/23 08:57:43;;;;;;;7.67;4.83;;;2.10;99.90;;;;;;4991579;28;20196;-60
2021/01/23 09:00:11;;;;;;;5.80;4.90;;;2.20;99.90;;;;;;4997909;28;20211;-61
2021/01/23 09:02:37;;;;;;;7.43;4.23;;;2.20;99.90;;;;;;4998933;28;20248;-60
2021/01/23 09:05:04;;;;;;;8.43;4.83;;;2.20;99.90;;;;;;5001070;28;20429;-58
2021/01/23 09:07:29;;;;;;;6.03;4.40;;;2.20;99.90;;;;;;5002349;28;20519;-58
2021/01/23 09:09:55;;;;;;;5.73;4.30;;;2.30;99.90;;;;;;4999372;28;20512;-57
2021/01/23 09:12:21;;;;;;;5.93;3.90;;;2.30;99.90;;;;;;5001045;28;20197;-58
2021/01/23 09:14:47;;;;;;;7.13;4.50;;;2.30;99.90;;;;;;4996940;28;20950;-61
2021/01/23 09:17:12;;;;;;;6.00;3.80;;;2.30;99.90;;;;;;5003128;28;20222;-60
2021/01/23 09:19:38;;;;;;;4.53;3.60;;;2.40;99.90;;;;;;5004788;28;20296;-59
2021/01/23 09:22:04;;;;;;;5.27;3.57;;;2.50;99.90;;;;;;5000837;28;20820;-60
2021/01/23 09:24:30;;;;;;;6.30;3.87;;;2.50;99.90;;;;;;5004099;28;20545;-60
2021/01/23 09:26:55;;;;;;;4.97;4.00;;;2.50;99.90;;;;;;5002501;28;20182;-59
2021/01/23 09:29:22;;;;;;;9.70;4.50;;;2.60;99.90;;;;;;5004375;28;20258;-59
2021/01/23 09:31:47;;;;;;;7.30;4.50;;;2.60;99.90;;;;;;5001611;28;20949;-59
2021/01/23 09:34:16;;;;;;;9.27;5.17;;;2.60;99.90;;;;;;5005506;28;20442;-61
2021/01/23 09:36:42;;;;;;;8.77;5.40;;;2.70;99.90;;;;;;5006748;28;20214;-58
2021/01/23 09:39:10;;;;;;;6.50;4.83;;;2.70;99.90;;;;;;5008607;28;20450;-57
2021/01/23 09:41:38;;;;;;;8.17;5.40;;;2.70;99.90;;;;;;5008140;28;20431;-58
2021/01/23 09:44:11;;;;;;;10.40;6.20;;;2.80;99.90;;;;;;5007885;28;20413;-60
2021/01/23 09:46:37;;;;;;;9.20;6.17;;;2.80;99.90;;;;;;5005515;28;20442;-62
2021/01/23 09:49:03;;;;;;;14.73;6.63;;;2.90;99.90;;;;;;5000845;28;20444;-60
2021/01/23 09:51:29;;;;;;;11.57;6.57;;;2.90;99.90;;;;;;5005903;28;20480;-61
2021/01/23 09:53:55;;;;;;;10.20;6.07;;;2.90;99.90;;;;;;5007310;28;20259;-60
2021/01/23 09:56:21;;;;;;;11.70;6.50;;;2.90;99.90;;;;;;5004202;28;20214;-61
2021/01/23 09:58:47;;;;;;;10.03;6.27;;;2.90;99.90;;;;;;5011420;28;20565;-62
2021/01/23 10:01:13;;;;;;;9.60;6.40;;;2.90;99.90;;;;;;5001111;28;20453;-60
2021/01/23 10:03:38;;;;;;;10.30;5.80;;;2.90;99.90;;;;;;5007416;28;20239;-61
2021/01/23 10:06:04;;;;;;;13.03;5.90;;;2.90;99.90;;;;;;4988067;28;20272;-62
2021/01/23 10:08:30;;;;;;;9.17;5.40;;;2.90;99.90;;;;;;4999663;28;20549;-62
2021/01/23 10:10:55;;;;;;;6.53;4.87;;;2.90;99.90;;;;;;4999220;28;20294;-62
2021/01/23 10:13:21;;;;;;;6.90;5.10;;;3.00;99.90;;;;;;4999689;28;20214;-61
2021/01/23 10:15:47;;;;;;;9.17;5.77;;;3.00;99.90;;;;;;4992089;28;20728;-61
2021/01/23 10:18:12;;;;;;;9.60;5.77;;;3.10;99.90;;;;;;4963287;28;20625;-61
2021/01/23 10:20:38;;;;;;;8.13;5.07;;;3.10;99.90;;;;;;4992072;28;21032;-60
2021/01/23 10:23:04;;;;;;;8.80;4.53;;;3.20;99.90;;;;;;4993331;28;21233;-61
2021/01/23 10:25:30;;;;;;;6.63;4.17;;;3.20;99.90;;;;;;4992134;28;20210;-64
2021/01/23 10:27:56;;;;;;;6.97;4.43;;;3.20;99.90;;;;;;5000251;28;20187;-62
2021/01/23 10:30:22;;;;;;;8.93;5.10;;;3.30;99.90;;;;;;4993124;28;20461;-62
2021/01/23 10:32:48;;;;;;;10.20;5.10;;;3.40;99.90;;;;;;4994177;28;20171;-61
2021/01/23 10:35:14;;;;;;;9.23;5.73;;;3.40;99.90;;;;;;4991369;28;20437;-63
2021/01/23 10:37:43;;;;;;;11.43;5.03;;;3.30;99.90;;;;;;4994232;28;20250;-60
2021/01/23 10:40:09;;;;;;;9.37;5.03;;;3.40;99.90;;;;;;4997758;28;20939;-61
2021/01/23 10:42:35;;;;;;;7.70;5.40;;;3.40;99.90;;;;;;4999017;28;20451;-60
2021/01/23 10:45:03;;;;;;;6.60;5.00;;;3.40;99.90;;;;;;4992572;28;20443;-61
2021/01/23 10:47:28;;;;;;;7.60;5.37;;;3.50;99.90;;;;;;4991586;28;20171;-60
2021/01/23 10:49:54;;;;;;;7.27;5.53;;;3.50;99.90;;;;;;5000632;28;20479;-60
2021/01/23 10:52:20;;;;;;;6.93;5.50;;;3.50;99.90;;;;;;4999356;28;20181;-59
2021/01/23 10:54:46;;;;;;;7.13;5.47;;;3.50;99.90;;;;;;4994696;28;20180;-62
2021/01/23 10:57:12;;;;;;;8.20;5.43;;;3.40;99.90;;;;;;5003087;28;20267;-56
2021/01/23 10:59:41;;;;;;;10.17;4.73;;;3.40;99.90;;;;;;5003384;28;20200;-57
2021/01/23 11:02:07;;;;;;;9.10;4.93;;;3.40;99.90;;;;;;5005246;28;20424;-62
2021/01/23 11:04:32;;;;;;;7.83;5.10;;;3.40;99.90;;;;;;5010576;28;20430;-62
2021/01/23 11:06:58;;;;;;;10.40;5.23;;;3.30;99.90;;;;;;5017152;28;20188;-61
2021/01/23 11:09:24;;;;;;;6.73;5.00;;;3.30;99.90;;;;;;5008873;28;20188;-61
2021/01/23 11:11:50;;;;;;;6.37;5.43;;;3.30;99.90;;;;;;5013159;28;20431;-62
2021/01/23 11:14:15;;;;;;;11.07;5.50;;;3.30;99.90;;;;;;5011586;28;20541;-63
2021/01/23 11:16:44;;;;;;;6.07;5.03;;;3.30;99.90;;;;;;5009760;28;20196;-62
2021/01/23 11:19:13;;;;;;;8.20;5.47;;;3.40;99.90;;;;;;5001442;28;20174;-62
2021/01/23 11:21:38;;;;;;;9.23;6.37;;;3.30;99.90;;;;;;5007385;28;20423;-61
2021/01/23 11:24:04;;;;;;;10.30;6.20;;;3.30;99.90;;;;;;5009990;28;20457;-62
2021/01/23 11:26:30;;;;;;;11.77;7.10;;;3.30;99.90;;;;;;5016982;28;20181;-63
2021/01/23 11:28:56;;;;;;;10.27;6.23;;;3.30;99.90;;;;;;4997192;28;20415;-60
2021/01/23 11:31:23;;;;;;;7.70;5.37;;;3.20;99.90;;;;;;5008240;28;20272;-61
2021/01/23 11:33:48;;;;;;;9.00;5.43;;;3.20;99.90;;;;;;5022027;28;20482;-61
2021/01/23 11:36:14;;;;;;;8.40;5.20;;;3.20;99.90;;;;;;5002424;28;20455;-63
2021/01/23 11:38:40;;;;;;;7.60;5.30;;;3.20;99.90;;;;;;5021167;28;20181;-61
2021/01/23 11:41:05;;;;;;;7.30;5.27;;;3.20;99.90;;;;;;5008843;28;20195;-62
2021/01/23 11:43:31;;;;;;;7.20;5.03;;;3.30;99.90;;;;;;5006217;28;20261;-65
2021/01/23 11:45:57;;;;;;;8.13;4.90;;;3.30;99.90;;;;;;4999802;28;20214;-65
2021/01/23 11:48:23;;;;;;;5.57;4.40;;;3.20;98.90;;;;;;5020693;28;20183;-61
2021/01/23 11:50:48;;;;;;;7.40;5.43;;;3.10;99.00;;;;;;5009049;28;20462;-61
2021/01/23 11:53:18;;;;;;;6.97;5.20;;;3.10;99.60;;;;;;5009974;28;20613;-62
2021/01/23 11:55:44;;;;;;;5.93;4.97;;;3.20;99.90;;;;;;5008225;28;20474;-62
2021/01/23 11:58:10;;;;;;;9.97;4.83;;;3.20;99.90;;;;;;4999300;28;20422;-62
2021/01/23 12:00:36;;;;;;;6.10;4.70;;;3.30;99.90;;;;;;5008942;28;20442;-63
2021/01/23 12:03:03;;;;;;;10.23;6.17;;;3.20;99.00;;;;;;4999961;28;20189;-62
2021/01/23 12:05:31;;;;;;;9.17;5.63;;;3.20;99.60;;;;;;4998500;28;20815;-61
2021/01/23 12:07:57;;;;;;;12.83;6.77;;;3.20;99.90;;;;;;4995094;28;20439;-61
2021/01/23 12:10:23;;;;;;;9.10;6.30;;;3.20;99.90;;;;;;4998858;28;20447;-60
2021/01/23 12:12:48;;;;;;;6.60;5.27;;;3.20;99.50;;;;;;5001346;28;20458;-61
2021/01/23 12:15:16;;;;;;;8.73;5.43;;;3.30;99.90;;;;;;4996441;28;20185;-61
2021/01/23 12:17:41;;;;;;;9.00;6.10;;;3.30;99.50;;;;;;5000009;28;20197;-61
2021/01/23 12:20:10;;;;;;;6.70;4.97;;;3.40;99.70;;;;;;4999168;28;20447;-61
2021/01/23 12:22:37;;;;;;;6.63;5.30;;;3.50;98.70;;;;;;5005213;28;20201;-63
2021/01/23 12:25:04;;;;;;;7.50;5.70;;;3.40;98.80;;;;;;4996614;28;20800;-61
2021/01/23 12:27:30;;;;;;;6.00;5.00;;;3.50;99.10;;;;;;4993760;28;20405;-62
2021/01/23 12:29:55;;;;;;;6.07;5.00;;;3.50;98.40;;;;;;4988802;28;20445;-61
2021/01/23 12:32:21;;;;;;;9.70;5.13;;;3.50;98.50;;;;;;4991891;28;20795;-60
2021/01/23 12:34:47;;;;;;;8.83;6.03;;;3.50;98.00;;;;;;5003272;28;20184;-61
2021/01/23 12:37:12;;;;;;;7.60;5.33;;;3.60;98.60;;;;;;4998404;28;20201;-61
2021/01/23 12:39:38;;;;;;;7.30;5.20;;;3.60;99.00;;;;;;5001191;28;20216;-61
2021/01/23 12:42:06;;;;;;;7.20;5.10;;;3.70;98.90;;;;;;5004384;28;20443;-62
2021/01/23 12:44:32;;;;;;;8.53;4.80;;;3.80;98.50;;;;;;4998418;28;20187;-61
2021/01/23 12:46:57;;;;;;;10.97;5.43;;;3.80;98.20;;;;;;5000886;28;20424;-61
2021/01/23 12:49:41;;;;;;;6.93;5.70;;;3.70;97.90;;;;;;5003481;28;20241;-61
2021/01/23 12:52:07;;;;;;;6.90;4.13;;;3.70;98.40;;;;;;4995350;28;20179;-60
2021/01/23 12:54:32;;;;;;;7.30;4.93;;;3.60;98.70;;;;;;5002678;28;20968;-63
2021/01/23 12:56:58;;;;;;;6.50;5.00;;;3.50;98.40;;;;;;4993587;28;20455;-61
2021/01/23 12:59:24;;;;;;;8.43;5.50;;;3.40;98.10;;;;;;4994988;28;20291;-62
2021/01/23 13:01:51;;;;;;;7.20;5.50;;;3.30;98.00;;;;;;4992965;28;20620;-62